Aktualizace27-Dec-2013 12:01pm 
 
:.
METEOSTANICE CHUDCICE (CZ), Milan Kolar

Vývoj počasí za 24 hodin



Temp/Humidity last 24 hours


Čas Teplota Rychlost větru Směr větru Vlhkost Tlak D隝
20:41 23.3°C (73.9°F) 0.0km/h (0.0 mph) E 49% 1012.5hPa (29.90 inHg) 0.0mm (0.00 in.)
19:41 25.9°C (78.6 °F) 3.7km/h (2.3 mph) NNW 42% 1012.5hPa (29.90 inHg) 0.0mm (0.00 in.)
18:41 27.6°C (81.7 °F) 3.7km/h (2.3 mph) NNW 38% 1012.5hPa (29.90 inHg) 0.0mm (0.00 in.)
17:41 29.5°C (85.1 °F) 3.7km/h (2.3 mph) NNE 33% 1012.5hPa (29.90 inHg) 0.0mm (0.00 in.)
16:41 29.5°C (85.1 °F) 1.9km/h (1.2 mph) ENE 32% 1012.5hPa (29.90 inHg) 0.0mm (0.00 in.)
15:41 30.4°C (86.7 °F) 3.7km/h (2.3 mph) E 32% 1012.5hPa (29.90 inHg) 0.0mm (0.00 in.)
14:41 29.6°C (85.3 °F) 7.4km/h (4.6 mph) NNE 33% 1012.5hPa (29.90 inHg) 0.0mm (0.00 in.)
13:41 29.6°C (85.3 °F) 5.6km/h (3.5 mph) NW 36% 1012.5hPa (29.90 inHg) 0.0mm (0.00 in.)
12:41 28.5°C (83.3 °F) 3.7km/h (2.3 mph) W 38% 1012.5hPa (29.90 inHg) 0.0mm (0.00 in.)
11:41 26.7°C (80.1 °F) 7.4km/h (4.6 mph) NNE 43% 1012.5hPa (29.90 inHg) 0.0mm (0.00 in.)
10:41 26.9°C (80.4 °F) 1.9km/h (1.2 mph) NNE 48% 1012.5hPa (29.90 inHg) 0.0mm (0.00 in.)
09:41 24.8°C (76.6 °F) 1.9km/h (1.2 mph) NE 57% 1012.5hPa (29.90 inHg) 0.0mm (0.00 in.)
08:41 22.8°C (73.0 °F) 0.0km/h (0.0 mph) W 63% 1012.5hPa (29.90 inHg) 0.0mm (0.00 in.)
07:41 19.1°C (66.4 °F) 0.0km/h (0.0 mph) N 72% 1012.5hPa (29.90 inHg) 0.0mm (0.00 in.)
06:41 13.2°C (55.8 °F) 0.0km/h (0.0 mph) E 81% 1012.5hPa (29.90 inHg) 0.0mm (0.00 in.)
05:41 10.2°C (50.4 °F) 0.0km/h (0.0 mph) ENE 82% 1012.5hPa (29.90 inHg) 0.0mm (0.00 in.)
04:41 10.6°C (51.1 °F) 0.0km/h (0.0 mph) ENE 81% 1012.5hPa (29.90 inHg) 0.0mm (0.00 in.)
03:41 11.3°C (52.3 °F) 0.0km/h (0.0 mph) ENE 81% 1012.5hPa (29.90 inHg) 0.0mm (0.00 in.)
02:41 11.9°C (53.4 °F) 0.0km/h (0.0 mph) E 80% 1012.5hPa (29.90 inHg) 0.0mm (0.00 in.)
01:41 12.8°C (55.0 °F) 0.0km/h (0.0 mph) ENE 79% 1012.5hPa (29.90 inHg) 0.0mm (0.00 in.)
00:41 14.2°C (57.6 °F) 0.0km/h (0.0 mph) ENE 78% 1012.5hPa (29.90 inHg) 0.0mm (0.00 in.)
23:41 15.3°C (59.5 °F) 0.0km/h (0.0 mph) SW 75% 1012.5hPa (29.90 inHg) 0.0mm (0.00 in.)
22:41 16.8°C (62.2 °F) 0.0km/h (0.0 mph) E 71% 1012.5hPa (29.90 inHg) 0.0mm (0.00 in.)
21:41 19.6°C (67.3 °F) 0.0km/h (0.0 mph) N 64% 1012.5hPa (29.90 inHg) 0.0mm (0.00 in.)

Barometer last 24 hours

Rain last 24 hours

Avg Windspeed last 24 hours

Š 2008-2017, Ing.Milan Kolář, Meteostanice WS 2350, La Crosse Technology